createdAt,value
2019-03-28T00:00:09.133Z,19.78
2019-03-28T00:01:13.333Z,19.79
2019-03-28T00:02:16.597Z,19.80
2019-03-28T00:03:18.094Z,19.79
2019-03-28T00:04:19.485Z,19.80
2019-03-28T00:05:20.869Z,19.79
2019-03-28T00:06:22.255Z,19.77
2019-03-28T00:07:24.359Z,19.79
2019-03-28T00:08:25.844Z,19.78
2019-03-28T00:09:27.283Z,19.77
2019-03-28T00:10:28.691Z,19.78
2019-03-28T00:11:30.108Z,19.78
2019-03-28T00:12:31.519Z,19.80
2019-03-28T00:13:32.935Z,19.80
2019-03-28T00:14:34.495Z,19.80
2019-03-28T00:15:35.977Z,19.81
2019-03-28T00:16:37.374Z,19.82
2019-03-28T00:17:38.859Z,19.82
2019-03-28T00:18:40.251Z,19.83
2019-03-28T00:19:41.744Z,19.84
2019-03-28T00:20:44.132Z,19.83
2019-03-28T00:21:45.594Z,19.84
2019-03-28T00:23:07.277Z,19.85
2019-03-28T00:24:16.338Z,19.86
2019-03-28T00:25:18.828Z,19.89
2019-03-28T00:26:30.240Z,19.88
2019-03-28T00:27:23.488Z,19.86
2019-03-28T00:28:24.972Z,19.84
2019-03-28T00:29:26.360Z,19.84
2019-03-28T00:30:27.856Z,19.82
2019-03-28T00:31:29.275Z,19.82
2019-03-28T00:32:30.732Z,19.82
2019-03-28T00:33:32.205Z,19.81
2019-03-28T00:34:33.599Z,19.80
2019-03-28T00:35:34.988Z,19.79
2019-03-28T00:36:36.368Z,19.79
2019-03-28T00:37:37.752Z,19.78
2019-03-28T00:38:39.237Z,19.78
2019-03-28T00:39:40.619Z,19.78
2019-03-28T00:40:42.026Z,19.78
2019-03-28T00:41:43.388Z,19.77
2019-03-28T00:42:44.785Z,19.76
2019-03-28T00:43:46.152Z,19.76
2019-03-28T00:44:47.652Z,19.74
2019-03-28T00:45:49.040Z,19.75
2019-03-28T00:46:50.427Z,19.74
2019-03-28T00:47:51.804Z,19.74
2019-03-28T00:48:53.213Z,19.75
2019-03-28T00:49:54.566Z,19.75
2019-03-28T00:50:55.992Z,19.75
2019-03-28T00:51:57.468Z,19.75
2019-03-28T00:52:58.869Z,19.75
2019-03-28T00:54:00.375Z,19.76
2019-03-28T00:55:01.784Z,19.75
2019-03-28T00:56:03.193Z,19.76
2019-03-28T00:57:04.560Z,19.76
2019-03-28T00:58:05.955Z,19.75
2019-03-28T00:59:07.324Z,19.75
2019-03-28T01:00:09.124Z,19.75
2019-03-28T01:01:10.632Z,19.76
2019-03-28T01:02:12.036Z,19.75
2019-03-28T01:03:14.440Z,19.76
2019-03-28T01:04:15.854Z,19.75
2019-03-28T01:05:17.412Z,19.76
2019-03-28T01:06:19.006Z,19.76
2019-03-28T01:07:20.380Z,19.78
2019-03-28T01:08:21.777Z,19.77
2019-03-28T01:09:23.248Z,19.77
2019-03-28T01:10:24.644Z,19.78
2019-03-28T01:11:26.965Z,19.79
2019-03-28T01:12:28.464Z,19.78
2019-03-28T01:13:29.869Z,19.79
2019-03-28T01:14:31.279Z,19.78
2019-03-28T01:15:32.693Z,19.79
2019-03-28T01:16:34.091Z,19.78
2019-03-28T01:17:35.464Z,19.79
2019-03-28T01:18:36.876Z,19.79
2019-03-28T01:19:38.387Z,19.79
2019-03-28T01:20:39.788Z,19.79
2019-03-28T01:21:41.495Z,19.79
2019-03-28T01:22:42.950Z,19.80
2019-03-28T01:23:44.338Z,19.81
2019-03-28T01:24:46.716Z,19.81
2019-03-28T01:25:48.209Z,19.82
2019-03-28T01:26:57.170Z,19.82
2019-03-28T01:27:52.894Z,19.84
2019-03-28T01:28:54.287Z,19.83
2019-03-28T01:29:55.661Z,19.83
2019-03-28T01:30:57.336Z,19.82
2019-03-28T01:31:58.727Z,19.83
2019-03-28T01:33:00.111Z,19.82
2019-03-28T01:34:01.501Z,19.83
2019-03-28T01:35:03.591Z,19.82
2019-03-28T01:36:05.116Z,19.82
2019-03-28T01:37:06.556Z,19.82
2019-03-28T01:38:07.936Z,19.82
2019-03-28T01:39:10.150Z,19.80
2019-03-28T01:40:11.718Z,19.79
2019-03-28T01:41:13.118Z,19.79
2019-03-28T01:42:14.537Z,19.78
2019-03-28T01:43:15.924Z,19.78
2019-03-28T01:44:17.551Z,19.77
2019-03-28T01:45:19.112Z,19.75
2019-03-28T01:46:20.500Z,19.75
2019-03-28T01:47:22.002Z,19.74
2019-03-28T01:48:23.486Z,19.75
2019-03-28T01:49:24.984Z,19.76
2019-03-28T01:50:26.567Z,19.75
2019-03-28T01:51:27.963Z,19.73
2019-03-28T01:52:29.366Z,19.74
2019-03-28T01:53:31.242Z,19.74
2019-03-28T01:54:32.632Z,19.75
2019-03-28T01:55:34.017Z,19.73
2019-03-28T01:56:36.315Z,19.74
2019-03-28T01:57:37.835Z,19.75
2019-03-28T01:58:39.317Z,19.75
2019-03-28T01:59:40.716Z,19.76
2019-03-28T02:00:42.096Z,19.76
2019-03-28T02:01:43.492Z,19.76
2019-03-28T02:02:45.327Z,19.75
2019-03-28T02:03:47.107Z,19.76
2019-03-28T02:04:48.512Z,19.76
2019-03-28T02:05:49.920Z,19.76
2019-03-28T02:06:51.332Z,19.76
2019-03-28T02:07:52.750Z,19.75
2019-03-28T02:08:54.132Z,19.76
2019-03-28T02:09:55.533Z,19.77
2019-03-28T02:10:56.904Z,19.77
2019-03-28T02:11:58.300Z,19.76
2019-03-28T02:12:59.788Z,19.78
2019-03-28T02:14:01.197Z,19.79
2019-03-28T02:15:05.307Z,19.78
2019-03-28T02:16:06.712Z,19.79
2019-03-28T02:17:08.121Z,19.78
2019-03-28T02:18:09.515Z,19.78
2019-03-28T02:19:10.888Z,19.78
2019-03-28T02:20:12.482Z,19.78
2019-03-28T02:21:13.852Z,19.77
2019-03-28T02:22:15.246Z,19.78
2019-03-28T02:23:16.628Z,19.78
2019-03-28T02:24:18.106Z,19.79
2019-03-28T02:25:19.510Z,19.79
2019-03-28T02:26:21.928Z,19.78
2019-03-28T02:27:24.636Z,19.80
2019-03-28T02:28:26.562Z,19.79
2019-03-28T02:29:27.935Z,19.78
2019-03-28T02:30:31.245Z,19.79
2019-03-28T02:31:32.708Z,19.78
2019-03-28T02:32:34.250Z,19.78
2019-03-28T02:33:35.708Z,19.79
2019-03-28T02:34:37.118Z,19.78
2019-03-28T02:35:38.531Z,19.79
2019-03-28T02:36:39.939Z,19.78
2019-03-28T02:37:41.397Z,19.79
2019-03-28T02:38:43.282Z,19.79
2019-03-28T02:39:44.660Z,19.79
2019-03-28T02:40:46.057Z,19.78
2019-03-28T02:41:47.440Z,19.78
2019-03-28T02:42:48.831Z,19.78
2019-03-28T02:43:50.225Z,19.77
2019-03-28T02:44:51.637Z,19.75
2019-03-28T02:45:53.043Z,19.75
2019-03-28T02:46:54.555Z,19.73
2019-03-28T02:47:55.962Z,19.71
2019-03-28T02:48:57.464Z,19.71
2019-03-28T02:49:58.844Z,19.70
2019-03-28T02:51:00.349Z,19.68
2019-03-28T02:52:01.828Z,19.67
2019-03-28T02:53:03.333Z,19.67
2019-03-28T02:54:05.520Z,19.66
2019-03-28T02:55:07.637Z,19.66
2019-03-28T02:56:10.244Z,19.65
2019-03-28T02:57:11.650Z,19.65
2019-03-28T02:58:13.053Z,19.66
2019-03-28T02:59:14.479Z,19.66
2019-03-28T03:00:16.070Z,19.64
2019-03-28T03:01:17.577Z,19.64
2019-03-28T03:02:18.956Z,19.64
2019-03-28T03:03:20.360Z,19.64
2019-03-28T03:04:21.904Z,19.63
2019-03-28T03:05:23.307Z,19.64
2019-03-28T03:06:24.713Z,19.63
2019-03-28T03:07:26.118Z,19.63
2019-03-28T03:08:27.539Z,19.64
2019-03-28T03:09:29.440Z,19.64
2019-03-28T03:10:30.817Z,19.65
2019-03-28T03:11:32.217Z,19.65
2019-03-28T03:12:33.595Z,19.65
2019-03-28T03:13:35.098Z,19.65
2019-03-28T03:14:37.506Z,19.64
2019-03-28T03:15:39.289Z,19.65
2019-03-28T03:16:40.701Z,19.65
2019-03-28T03:17:42.116Z,19.65
2019-03-28T03:18:43.531Z,19.66
2019-03-28T03:19:44.935Z,19.67
2019-03-28T03:20:46.340Z,19.68
2019-03-28T03:21:47.759Z,19.68
2019-03-28T03:22:49.165Z,19.68
2019-03-28T03:23:50.572Z,19.69
2019-03-28T03:24:52.087Z,19.69
2019-03-28T03:25:53.534Z,19.69
2019-03-28T03:26:55.034Z,19.70
2019-03-28T03:27:58.959Z,19.70
2019-03-28T03:28:59.715Z,19.71
2019-03-28T03:30:01.142Z,19.71
2019-03-28T03:31:02.698Z,19.71
2019-03-28T03:32:04.086Z,19.70
2019-03-28T03:33:05.531Z,19.71
2019-03-28T03:34:06.945Z,19.72
2019-03-28T03:35:08.536Z,19.71
2019-03-28T03:36:10.896Z,19.72
2019-03-28T03:37:12.288Z,19.74
2019-03-28T03:38:13.686Z,19.72
2019-03-28T03:39:15.061Z,19.74
2019-03-28T03:40:16.775Z,19.74
2019-03-28T03:41:19.377Z,19.75
2019-03-28T03:42:20.748Z,19.75
2019-03-28T03:43:23.068Z,19.76
2019-03-28T03:44:24.817Z,19.77
2019-03-28T03:45:26.541Z,19.75
2019-03-28T03:46:27.920Z,19.76
2019-03-28T03:47:29.306Z,19.76
2019-03-28T03:48:30.701Z,19.75
2019-03-28T03:49:32.119Z,19.77
2019-03-28T03:50:33.495Z,19.76
2019-03-28T03:51:34.864Z,19.76
2019-03-28T03:52:36.275Z,19.76
2019-03-28T03:53:37.755Z,19.77
2019-03-28T03:54:39.157Z,19.76
2019-03-28T03:55:40.552Z,19.76
2019-03-28T03:56:42.008Z,19.76
2019-03-28T03:57:43.387Z,19.77
2019-03-28T03:58:45.677Z,19.76
2019-03-28T03:59:47.365Z,19.76
2019-03-28T04:00:48.757Z,19.76
2019-03-28T04:01:50.123Z,19.76
2019-03-28T04:02:51.520Z,19.77
2019-03-28T04:03:53.000Z,19.76
2019-03-28T04:04:56.544Z,19.76
2019-03-28T04:05:57.846Z,19.76
2019-03-28T04:06:59.213Z,19.75
2019-03-28T04:08:00.606Z,19.73
2019-03-28T04:09:03.591Z,19.72
2019-03-28T04:10:05.085Z,19.71
2019-03-28T04:11:06.896Z,19.70
2019-03-28T04:12:08.296Z,19.69
2019-03-28T04:13:10.685Z,19.67
2019-03-28T04:14:12.294Z,19.66
2019-03-28T04:15:14.713Z,19.66
2019-03-28T04:16:16.147Z,19.65
2019-03-28T04:17:17.633Z,19.64
2019-03-28T04:18:22.076Z,19.64
2019-03-28T04:19:22.312Z,19.64
2019-03-28T04:20:24.895Z,19.65
2019-03-28T04:21:26.622Z,19.63
2019-03-28T04:22:29.013Z,19.64
2019-03-28T04:23:30.405Z,19.65
2019-03-28T04:24:31.799Z,19.63
2019-03-28T04:25:33.184Z,19.63
2019-03-28T04:26:34.683Z,19.62
2019-03-28T04:27:37.158Z,19.64
2019-03-28T04:28:38.778Z,19.65
2019-03-28T04:29:41.287Z,19.63
2019-03-28T04:30:42.714Z,19.64
2019-03-28T04:31:44.207Z,19.65
2019-03-28T04:32:46.745Z,19.65
2019-03-28T04:33:48.341Z,19.65
2019-03-28T04:34:49.749Z,19.65
2019-03-28T04:35:51.168Z,19.65
2019-03-28T04:36:52.589Z,19.64
2019-03-28T04:37:53.966Z,19.65
2019-03-28T04:38:55.364Z,19.66
2019-03-28T04:39:57.848Z,19.66
2019-03-28T04:40:59.274Z,19.68
2019-03-28T04:42:02.209Z,19.67
2019-03-28T04:43:03.627Z,19.68
2019-03-28T04:44:05.040Z,19.68
2019-03-28T04:45:06.549Z,19.68
2019-03-28T04:46:07.952Z,19.69
2019-03-28T04:47:09.358Z,19.69
2019-03-28T04:48:10.740Z,19.69
2019-03-28T04:49:12.140Z,19.69
2019-03-28T04:50:13.513Z,19.72
2019-03-28T04:51:14.990Z,19.73
2019-03-28T04:52:16.403Z,19.75
2019-03-28T04:53:17.814Z,19.73
2019-03-28T04:54:19.224Z,19.74
2019-03-28T04:55:21.330Z,19.73
2019-03-28T04:56:22.846Z,19.74
2019-03-28T04:57:24.467Z,19.72
2019-03-28T04:58:25.890Z,19.73
2019-03-28T04:59:27.276Z,19.73
2019-03-28T05:00:28.656Z,19.74
2019-03-28T05:01:30.038Z,19.74
2019-03-28T05:02:31.616Z,19.74
2019-03-28T05:03:33.115Z,19.75
2019-03-28T05:04:34.499Z,19.75
2019-03-28T05:05:35.873Z,19.77
2019-03-28T05:06:38.117Z,19.77
2019-03-28T05:07:39.652Z,19.77
2019-03-28T05:08:41.038Z,19.77
2019-03-28T05:09:42.424Z,19.77
2019-03-28T05:10:43.816Z,19.77
2019-03-28T05:11:45.204Z,19.77
2019-03-28T05:12:46.640Z,19.76
2019-03-28T05:13:48.017Z,19.74
2019-03-28T05:14:49.419Z,19.74
2019-03-28T05:15:50.793Z,19.72
2019-03-28T05:16:52.199Z,19.70
2019-03-28T05:17:53.583Z,19.69
2019-03-28T05:18:54.972Z,19.69
2019-03-28T05:19:56.365Z,19.68
2019-03-28T05:20:57.754Z,19.67
2019-03-28T05:21:59.236Z,19.66
2019-03-28T05:23:00.641Z,19.66
2019-03-28T05:24:03.014Z,19.66
2019-03-28T05:25:05.021Z,19.65
2019-03-28T05:26:06.395Z,19.65
2019-03-28T05:27:07.798Z,19.65
2019-03-28T05:28:09.215Z,19.66
2019-03-28T05:29:10.689Z,19.64
2019-03-28T05:30:12.281Z,19.65
2019-03-28T05:31:13.677Z,19.66
2019-03-28T05:32:15.055Z,19.66
2019-03-28T05:33:17.303Z,19.67
2019-03-28T05:34:18.871Z,19.67
2019-03-28T05:35:20.273Z,19.68
2019-03-28T05:36:21.756Z,19.68
2019-03-28T05:37:23.261Z,19.68
2019-03-28T05:38:24.755Z,19.67
2019-03-28T05:39:26.150Z,19.68
2019-03-28T05:40:27.537Z,19.67
2019-03-28T05:41:28.929Z,19.67
2019-03-28T05:42:30.314Z,19.68
2019-03-28T05:43:31.719Z,19.67
2019-03-28T05:44:42.159Z,19.68
2019-03-28T05:45:46.245Z,19.68
2019-03-28T05:46:47.247Z,19.70
2019-03-28T05:47:48.650Z,19.68
2019-03-28T05:48:50.059Z,19.69
2019-03-28T05:49:51.444Z,19.68
2019-03-28T05:50:52.835Z,19.68
2019-03-28T05:51:54.228Z,19.68
2019-03-28T05:52:55.722Z,19.69
2019-03-28T05:53:57.130Z,19.69
2019-03-28T05:54:58.504Z,19.72
2019-03-28T05:55:59.905Z,19.70
2019-03-28T05:57:01.280Z,19.71
2019-03-28T05:58:02.768Z,19.72
2019-03-28T05:59:10.731Z,19.73
2019-03-28T06:00:08.041Z,19.74
2019-03-28T06:01:09.428Z,19.75
2019-03-28T06:02:10.921Z,19.75
2019-03-28T06:03:12.412Z,19.74
2019-03-28T06:04:13.837Z,19.74
2019-03-28T06:05:15.309Z,19.73
2019-03-28T06:06:16.767Z,19.74
2019-03-28T06:07:18.285Z,19.74
2019-03-28T06:08:19.699Z,19.75
2019-03-28T06:09:21.107Z,19.76
2019-03-28T06:10:22.486Z,19.77
2019-03-28T06:11:23.885Z,19.79
2019-03-28T06:12:25.366Z,19.81
2019-03-28T06:13:26.768Z,19.83
2019-03-28T06:14:28.184Z,19.87
2019-03-28T06:15:31.998Z,19.89
2019-03-28T06:16:33.412Z,19.93
2019-03-28T06:17:34.821Z,19.97
2019-03-28T06:18:36.228Z,20.01
2019-03-28T06:19:38.351Z,20.07
2019-03-28T06:20:39.820Z,20.12
2019-03-28T06:21:41.217Z,20.18
2019-03-28T06:22:42.585Z,20.23
2019-03-28T06:23:43.990Z,20.27
2019-03-28T06:24:45.376Z,20.31
2019-03-28T06:25:46.793Z,20.36
2019-03-28T06:26:49.951Z,20.40
2019-03-28T06:27:51.516Z,20.44
2019-03-28T06:28:52.929Z,20.47
2019-03-28T06:29:54.328Z,20.53
2019-03-28T06:30:56.422Z,20.56
2019-03-28T06:31:58.812Z,20.59
2019-03-28T06:33:00.219Z,20.64
2019-03-28T06:34:01.581Z,20.69
2019-03-28T06:35:04.180Z,20.73
2019-03-28T06:36:05.664Z,20.78
2019-03-28T06:37:07.069Z,20.83
2019-03-28T06:38:08.449Z,20.85
2019-03-28T06:39:09.842Z,20.89
2019-03-28T06:40:11.751Z,20.93
2019-03-28T06:41:13.240Z,20.98
2019-03-28T06:42:16.480Z,21.02
2019-03-28T06:43:17.870Z,21.05
2019-03-28T06:44:19.256Z,21.08
2019-03-28T06:45:20.655Z,21.13
2019-03-28T06:46:22.594Z,21.15
2019-03-28T06:47:24.001Z,21.19
2019-03-28T06:48:25.385Z,21.22
2019-03-28T06:50:27.095Z,21.32
2019-03-28T06:51:28.511Z,21.29
2019-03-28T06:52:29.927Z,21.32
2019-03-28T06:53:31.349Z,21.34
2019-03-28T06:54:32.768Z,21.36
2019-03-28T06:55:36.759Z,21.39
2019-03-28T06:56:37.574Z,21.40
2019-03-28T06:57:38.975Z,21.44
2019-03-28T06:58:40.356Z,21.43
2019-03-28T06:59:41.864Z,21.48
2019-03-28T07:00:43.356Z,21.49
2019-03-28T07:01:44.839Z,21.52
2019-03-28T07:02:46.441Z,21.53
2019-03-28T07:03:47.855Z,21.53
2019-03-28T07:04:49.266Z,21.55
2019-03-28T07:05:50.666Z,21.57
2019-03-28T07:06:52.036Z,21.58
2019-03-28T07:07:53.436Z,21.59
2019-03-28T07:08:55.122Z,21.60
2019-03-28T07:09:56.512Z,21.61
2019-03-28T07:10:58.303Z,21.61
2019-03-28T07:11:59.817Z,21.62
2019-03-28T07:13:01.224Z,21.63
2019-03-28T07:14:03.731Z,21.65
2019-03-28T07:15:07.436Z,21.65
2019-03-28T07:16:08.847Z,21.66
2019-03-28T07:17:10.212Z,21.66
2019-03-28T07:18:11.613Z,21.67
2019-03-28T07:19:13.053Z,21.66
2019-03-28T07:20:14.450Z,21.67
2019-03-28T07:21:15.855Z,21.67
2019-03-28T07:22:17.265Z,21.67
2019-03-28T07:23:18.675Z,21.68
2019-03-28T07:24:20.092Z,21.67
2019-03-28T07:25:21.495Z,21.67
2019-03-28T07:26:22.898Z,21.67
2019-03-28T07:27:24.272Z,21.66
2019-03-28T07:28:25.769Z,21.66
2019-03-28T07:29:27.139Z,21.66
2019-03-28T07:30:28.537Z,21.66
2019-03-28T07:31:29.923Z,21.66
2019-03-28T07:32:31.393Z,21.67
2019-03-28T07:33:32.804Z,21.68
2019-03-28T07:34:34.217Z,21.68
2019-03-28T07:35:35.625Z,21.68
2019-03-28T07:36:37.040Z,21.69
2019-03-28T07:37:38.721Z,21.69
2019-03-28T07:38:40.321Z,21.70
2019-03-28T07:39:41.799Z,21.72
2019-03-28T07:40:43.197Z,21.68
2019-03-28T07:41:44.613Z,21.73
2019-03-28T07:42:46.079Z,21.81
2019-03-28T07:43:47.499Z,21.88
2019-03-28T07:44:49.035Z,21.85
2019-03-28T07:45:50.434Z,21.94
2019-03-28T07:46:51.853Z,22.05
2019-03-28T07:47:53.227Z,22.15
2019-03-28T07:48:56.343Z,22.24
2019-03-28T07:49:57.738Z,22.34
2019-03-28T07:50:59.139Z,22.41
2019-03-28T07:52:01.457Z,22.47
2019-03-28T07:53:03.148Z,22.52
2019-03-28T07:54:04.558Z,22.57
2019-03-28T07:55:06.965Z,22.59
2019-03-28T07:56:08.478Z,22.61
2019-03-28T07:57:10.107Z,22.62
2019-03-28T07:58:11.481Z,22.62
2019-03-28T07:59:12.880Z,22.62
2019-03-28T08:00:14.552Z,22.61
2019-03-28T08:01:18.062Z,22.60
2019-03-28T08:02:19.362Z,22.58
2019-03-28T08:03:20.932Z,22.57
2019-03-28T08:04:22.338Z,22.54
2019-03-28T08:05:24.015Z,22.53
2019-03-28T08:06:25.558Z,22.51
2019-03-28T08:07:26.966Z,22.49
2019-03-28T08:08:38.298Z,22.47
2019-03-28T08:09:36.749Z,22.45
2019-03-28T08:10:36.033Z,22.42
2019-03-28T08:11:37.575Z,22.39
2019-03-28T08:12:40.122Z,22.37
2019-03-28T08:13:41.534Z,22.35
2019-03-28T08:14:42.944Z,22.32
2019-03-28T08:15:44.458Z,22.30
2019-03-28T08:16:45.876Z,22.29
2019-03-28T08:17:47.279Z,22.25
2019-03-28T08:18:48.661Z,22.24
2019-03-28T08:19:50.587Z,22.21
2019-03-28T08:20:52.076Z,22.20
2019-03-28T08:21:53.476Z,22.17
2019-03-28T08:22:54.905Z,22.15
2019-03-28T08:23:56.316Z,22.14
2019-03-28T08:24:57.739Z,22.13
2019-03-28T08:25:59.242Z,22.11
2019-03-28T08:27:00.653Z,22.09
2019-03-28T08:28:02.049Z,22.07
2019-03-28T08:29:03.532Z,22.05
2019-03-28T08:30:18.364Z,22.04
2019-03-28T08:31:12.864Z,22.03
2019-03-28T08:32:16.163Z,22.03
2019-03-28T08:33:17.557Z,22.01
2019-03-28T08:34:19.128Z,22.00
2019-03-28T08:35:20.804Z,21.99
2019-03-28T08:36:22.212Z,21.98
2019-03-28T08:37:23.720Z,21.97
2019-03-28T08:38:25.212Z,21.98
2019-03-28T08:39:26.683Z,21.97
2019-03-28T08:40:40.091Z,21.97
2019-03-28T08:41:41.649Z,21.95
2019-03-28T08:42:43.055Z,21.96
2019-03-28T08:43:44.488Z,21.93
2019-03-28T08:44:45.898Z,21.94
2019-03-28T08:45:47.319Z,21.92
2019-03-28T08:46:48.833Z,21.90
2019-03-28T08:47:50.248Z,21.89
2019-03-28T08:48:51.649Z,21.89
2019-03-28T08:49:53.132Z,21.87
2019-03-28T08:50:56.245Z,21.86
2019-03-28T08:51:57.718Z,21.85
2019-03-28T08:52:59.126Z,21.85
2019-03-28T08:54:00.532Z,21.85
2019-03-28T08:55:03.613Z,21.83
2019-03-28T08:56:05.112Z,21.83
2019-03-28T08:57:06.489Z,21.83
2019-03-28T08:58:07.900Z,21.83
2019-03-28T08:59:09.282Z,21.81
2019-03-28T09:00:11.885Z,21.81
2019-03-28T09:01:13.302Z,21.80
2019-03-28T09:02:14.820Z,21.79
2019-03-28T09:03:16.234Z,21.78
2019-03-28T09:04:17.632Z,21.78
2019-03-28T09:05:19.204Z,21.76
2019-03-28T09:06:20.692Z,21.75
2019-03-28T09:07:22.192Z,21.74
2019-03-28T09:08:23.650Z,21.74
2019-03-28T09:09:25.086Z,21.73
2019-03-28T09:10:26.457Z,21.71
2019-03-28T09:11:29.120Z,21.70
2019-03-28T09:12:30.487Z,21.69
2019-03-28T09:13:31.894Z,21.68
2019-03-28T09:14:33.383Z,21.68
2019-03-28T09:15:43.519Z,21.67
2019-03-28T09:16:38.269Z,21.65
2019-03-28T09:17:39.721Z,21.66
2019-03-28T09:18:41.335Z,21.65
2019-03-28T09:19:42.718Z,21.63
2019-03-28T09:20:44.093Z,21.61
2019-03-28T09:21:45.753Z,21.61
2019-03-28T09:22:47.142Z,21.61
2019-03-28T09:23:48.547Z,21.61
2019-03-28T09:24:49.948Z,21.61
2019-03-28T09:25:51.344Z,21.61
2019-03-28T09:26:52.864Z,21.61
2019-03-28T09:27:54.244Z,21.60
2019-03-28T09:28:55.640Z,21.60
2019-03-28T09:29:57.042Z,21.62
2019-03-28T09:30:58.618Z,21.61
2019-03-28T09:32:00.118Z,21.61
2019-03-28T09:33:02.688Z,21.61
2019-03-28T09:34:04.088Z,21.61
2019-03-28T09:35:07.205Z,21.61
2019-03-28T09:36:08.657Z,21.63
2019-03-28T09:37:10.064Z,21.63
2019-03-28T09:38:11.539Z,21.61
2019-03-28T09:39:13.925Z,21.62
2019-03-28T09:40:15.320Z,21.61
2019-03-28T09:41:16.800Z,21.60
2019-03-28T09:42:18.199Z,21.61
2019-03-28T09:43:19.576Z,21.62
2019-03-28T09:44:21.993Z,21.63
2019-03-28T09:45:23.492Z,21.63
2019-03-28T09:46:24.977Z,21.62
2019-03-28T09:47:26.371Z,21.63
2019-03-28T09:48:27.747Z,21.62
2019-03-28T09:49:30.254Z,21.62
2019-03-28T09:50:31.761Z,21.62
2019-03-28T09:51:35.252Z,21.62
2019-03-28T09:52:37.019Z,21.61
2019-03-28T09:53:38.439Z,21.61
2019-03-28T09:54:40.950Z,21.61
2019-03-28T09:55:42.342Z,21.60
2019-03-28T09:56:43.728Z,21.59
2019-03-28T09:57:45.116Z,21.59
2019-03-28T09:58:46.499Z,21.60
2019-03-28T09:59:47.906Z,21.59
2019-03-28T10:01:02.127Z,21.58
2019-03-28T10:01:54.897Z,21.57
2019-03-28T10:02:56.306Z,21.59
2019-03-28T10:03:57.883Z,21.57
2019-03-28T10:04:59.297Z,21.58
2019-03-28T10:06:00.706Z,21.56
2019-03-28T10:07:02.773Z,21.57
2019-03-28T10:08:04.163Z,21.56
2019-03-28T10:09:05.952Z,21.55
2019-03-28T10:10:09.296Z,21.55
2019-03-28T10:11:10.840Z,21.54
2019-03-28T10:12:12.213Z,21.53
2019-03-28T10:13:13.618Z,21.53
2019-03-28T10:14:15.104Z,21.52
2019-03-28T10:15:17.191Z,21.53
2019-03-28T10:16:19.512Z,21.52
2019-03-28T10:17:21.096Z,21.53
2019-03-28T10:18:22.586Z,21.53
2019-03-28T10:19:23.975Z,21.53
2019-03-28T10:20:25.355Z,21.52
2019-03-28T10:21:26.752Z,21.52
2019-03-28T10:22:28.125Z,21.52
2019-03-28T10:23:32.284Z,21.51
2019-03-28T10:24:33.661Z,21.52
2019-03-28T10:25:35.056Z,21.53
2019-03-28T10:26:37.472Z,21.53
2019-03-28T10:27:38.861Z,21.54
2019-03-28T10:28:40.257Z,21.55
2019-03-28T10:29:41.645Z,21.56
2019-03-28T10:30:43.629Z,21.56
2019-03-28T10:31:45.143Z,21.56
2019-03-28T10:32:46.515Z,21.56
2019-03-28T10:33:48.007Z,21.57
2019-03-28T10:34:49.383Z,21.57
2019-03-28T10:35:50.781Z,21.56
2019-03-28T10:36:52.173Z,21.58
2019-03-28T10:37:53.617Z,21.58
2019-03-28T10:38:55.221Z,21.59
2019-03-28T10:39:56.604Z,21.60
2019-03-28T10:40:57.993Z,21.60
2019-03-28T10:41:59.417Z,21.61
2019-03-28T10:43:00.797Z,21.61
2019-03-28T10:44:02.512Z,21.61
2019-03-28T10:45:05.725Z,21.63
2019-03-28T10:46:07.133Z,21.63
2019-03-28T10:47:08.636Z,21.63
2019-03-28T10:48:10.010Z,21.62
2019-03-28T10:49:11.406Z,21.61
2019-03-28T10:50:12.877Z,21.60
2019-03-28T10:51:14.488Z,21.61
2019-03-28T10:52:15.889Z,21.61
2019-03-28T10:53:17.271Z,21.60
2019-03-28T10:54:20.969Z,21.60
2019-03-28T10:55:22.613Z,21.60
2019-03-28T10:56:24.463Z,21.60
2019-03-28T10:57:30.277Z,21.58
2019-03-28T10:58:29.356Z,21.58
2019-03-28T10:59:30.761Z,21.57
2019-03-28T11:00:32.541Z,21.56
2019-03-28T11:01:48.141Z,21.56
2019-03-28T11:02:37.348Z,21.56
2019-03-28T11:03:38.774Z,21.55
2019-03-28T11:04:40.193Z,21.54
2019-03-28T11:05:42.606Z,21.52
2019-03-28T11:06:44.066Z,21.52
2019-03-28T11:07:45.602Z,21.52
2019-03-28T11:08:48.067Z,21.50
2019-03-28T11:09:49.462Z,21.50
2019-03-28T11:10:50.845Z,21.50
2019-03-28T11:11:52.345Z,21.48
2019-03-28T11:12:53.747Z,21.47
2019-03-28T11:13:55.137Z,21.47
2019-03-28T11:14:57.537Z,21.45
2019-03-28T11:15:58.914Z,21.45
2019-03-28T11:17:00.328Z,21.45
2019-03-28T11:18:01.731Z,21.44
2019-03-28T11:19:03.205Z,21.43
2019-03-28T11:20:05.219Z,21.42
2019-03-28T11:21:06.605Z,21.42
2019-03-28T11:22:07.994Z,21.42
2019-03-28T11:23:09.510Z,21.41
2019-03-28T11:24:10.888Z,21.39
2019-03-28T11:25:12.657Z,21.39
2019-03-28T11:26:14.037Z,21.40
2019-03-28T11:27:15.543Z,21.39
2019-03-28T11:28:16.985Z,21.39
2019-03-28T11:29:18.348Z,21.39
2019-03-28T11:30:19.839Z,21.39
2019-03-28T11:31:21.225Z,21.39
2019-03-28T11:32:22.620Z,21.39
2019-03-28T11:33:24.120Z,21.38
2019-03-28T11:34:25.504Z,21.40
2019-03-28T11:35:26.903Z,21.40
2019-03-28T11:36:28.296Z,21.41
2019-03-28T11:37:29.693Z,21.41
2019-03-28T11:38:31.081Z,21.41
2019-03-28T11:39:32.529Z,21.42
2019-03-28T11:40:34.922Z,21.42
2019-03-28T11:41:36.320Z,21.42
2019-03-28T11:42:38.709Z,21.43
2019-03-28T11:43:40.109Z,21.42
2019-03-28T11:44:41.637Z,21.42
2019-03-28T11:45:43.034Z,21.43
2019-03-28T11:46:44.520Z,21.43
2019-03-28T11:47:45.929Z,21.44
2019-03-28T11:48:47.333Z,21.44
2019-03-28T11:49:48.722Z,21.44
2019-03-28T11:50:50.108Z,21.44
2019-03-28T11:51:51.521Z,21.44
2019-03-28T11:52:52.933Z,21.45
2019-03-28T11:53:54.344Z,21.44
2019-03-28T11:54:55.764Z,21.43
2019-03-28T11:55:57.706Z,21.44
2019-03-28T11:56:59.126Z,21.41
2019-03-28T11:58:00.545Z,21.43
2019-03-28T11:59:04.513Z,21.43
2019-03-28T12:00:09.032Z,21.42
2019-03-28T12:01:10.429Z,21.43
2019-03-28T12:02:19.846Z,21.43
2019-03-28T12:03:15.104Z,21.42
2019-03-28T12:04:16.482Z,21.42
2019-03-28T12:05:17.892Z,21.42
2019-03-28T12:06:19.321Z,21.40
2019-03-28T12:07:20.823Z,21.40
2019-03-28T12:08:22.329Z,21.40
2019-03-28T12:09:23.755Z,21.39
2019-03-28T12:10:25.305Z,21.40
2019-03-28T12:11:26.692Z,21.40
2019-03-28T12:12:28.073Z,21.40
2019-03-28T12:13:29.459Z,21.39
2019-03-28T12:14:30.961Z,21.40
2019-03-28T12:15:32.419Z,21.40
2019-03-28T12:16:33.825Z,21.41
2019-03-28T12:17:36.196Z,21.39
2019-03-28T12:18:37.593Z,21.40
2019-03-28T12:19:39.011Z,21.41
2019-03-28T12:20:40.390Z,21.40
2019-03-28T12:21:41.889Z,21.42
2019-03-28T12:22:43.273Z,21.41
2019-03-28T12:23:44.655Z,21.41
2019-03-28T12:24:46.045Z,21.42
2019-03-28T12:25:47.529Z,21.42
2019-03-28T12:26:49.036Z,21.41
2019-03-28T12:27:50.516Z,21.42
2019-03-28T12:28:51.917Z,21.43
2019-03-28T12:29:53.412Z,21.42
2019-03-28T12:30:54.865Z,21.42
2019-03-28T12:32:13.089Z,21.43
2019-03-28T12:33:03.136Z,21.43
2019-03-28T12:34:04.562Z,21.45
2019-03-28T12:35:06.469Z,21.45
2019-03-28T12:36:07.848Z,21.44
2019-03-28T12:37:09.249Z,21.44
2019-03-28T12:38:10.728Z,21.45
2019-03-28T12:39:15.388Z,21.46
2019-03-28T12:40:15.808Z,21.46
2019-03-28T12:41:17.188Z,21.45
2019-03-28T12:42:18.576Z,21.44
2019-03-28T12:43:20.070Z,21.45
2019-03-28T12:44:21.494Z,21.44
2019-03-28T12:45:23.064Z,21.43
2019-03-28T12:46:25.798Z,21.43
2019-03-28T12:47:41.228Z,21.42
2019-03-28T12:48:30.728Z,21.41
2019-03-28T12:49:32.136Z,21.41
2019-03-28T12:50:33.523Z,21.40
2019-03-28T12:51:34.916Z,21.39
2019-03-28T12:52:36.300Z,21.39
2019-03-28T12:53:37.712Z,21.38
2019-03-28T12:54:39.124Z,21.37
2019-03-28T12:55:40.517Z,21.35
2019-03-28T12:56:41.896Z,21.35
2019-03-28T12:57:43.400Z,21.34
2019-03-28T12:58:44.775Z,21.34
2019-03-28T12:59:46.185Z,21.33
2019-03-28T13:00:47.747Z,21.33
2019-03-28T13:01:49.232Z,21.33
2019-03-28T13:02:51.744Z,21.32
2019-03-28T13:03:53.156Z,21.31
2019-03-28T13:04:54.576Z,21.32
2019-03-28T13:05:55.973Z,21.30
2019-03-28T13:06:57.356Z,21.30
2019-03-28T13:07:58.863Z,21.30
2019-03-28T13:09:00.236Z,21.30
2019-03-28T13:10:02.533Z,21.28
2019-03-28T13:11:04.018Z,21.28
2019-03-28T13:12:05.429Z,21.27
2019-03-28T13:13:06.856Z,21.28
2019-03-28T13:14:08.247Z,21.28
2019-03-28T13:15:09.852Z,21.28